createdAt,value
2019-01-04T00:00:24.843Z,0.50
2019-01-04T00:02:53.751Z,0.40
2019-01-04T00:05:22.542Z,0.50
2019-01-04T00:07:51.420Z,0.50
2019-01-04T00:10:20.294Z,0.50
2019-01-04T00:12:49.118Z,0.50
2019-01-04T00:15:17.889Z,0.50
2019-01-04T00:17:46.792Z,0.50
2019-01-04T00:20:15.656Z,0.50
2019-01-04T00:22:44.554Z,0.50
2019-01-04T00:25:13.418Z,0.50
2019-01-04T00:27:42.374Z,0.50
2019-01-04T00:30:12.217Z,0.50
2019-01-04T00:32:41.231Z,0.50
2019-01-04T00:35:10.204Z,0.50
2019-01-04T00:37:39.092Z,0.50
2019-01-04T00:40:08.562Z,0.50
2019-01-04T00:42:37.534Z,0.50
2019-01-04T00:45:06.968Z,0.50
2019-01-04T00:47:35.848Z,0.40
2019-01-04T00:50:05.903Z,0.30
2019-01-04T00:52:34.850Z,0.40
2019-01-04T00:55:18.861Z,0.40
2019-01-04T00:58:20.453Z,0.40
2019-01-04T01:01:31.580Z,0.30
2019-01-04T01:04:36.147Z,0.30
2019-01-04T01:07:32.452Z,0.30
2019-01-04T01:10:35.763Z,0.20
2019-01-04T01:13:31.302Z,0.10
2019-01-04T01:16:53.103Z,0.00
2019-01-04T01:19:58.146Z,0.00
2019-01-04T01:23:15.540Z,-0.10
2019-01-04T01:26:28.273Z,-0.10
2019-01-04T01:29:31.443Z,-0.10
2019-01-04T01:32:37.687Z,-0.10
2019-01-04T01:35:47.855Z,-0.10
2019-01-04T01:38:53.653Z,-0.10
2019-01-04T01:42:05.300Z,-0.20
2019-01-04T01:45:30.260Z,-0.10
2019-01-04T01:48:43.005Z,-0.20
2019-01-04T01:51:34.726Z,-0.20
2019-01-04T01:54:03.552Z,-0.20
2019-01-04T01:56:32.358Z,-0.30
2019-01-04T01:59:01.162Z,-0.30
2019-01-04T02:01:29.983Z,-0.40
2019-01-04T02:03:58.783Z,-0.40
2019-01-04T02:06:27.609Z,-0.50
2019-01-04T02:08:56.406Z,-0.60
2019-01-04T02:11:25.223Z,-0.60
2019-01-04T02:13:54.010Z,-0.60
2019-01-04T02:16:22.817Z,-0.60
2019-01-04T02:18:51.602Z,-0.60
2019-01-04T02:21:20.501Z,-0.70
2019-01-04T02:23:49.319Z,-0.60
2019-01-04T02:26:18.160Z,-0.70
2019-01-04T02:28:46.942Z,-0.70
2019-01-04T02:31:15.746Z,-0.80
2019-01-04T02:33:44.541Z,-0.70
2019-01-04T02:36:13.371Z,-0.50
2019-01-04T02:38:42.169Z,-0.40
2019-01-04T02:41:11.011Z,-0.20
2019-01-04T02:43:39.898Z,-0.20
2019-01-04T02:46:09.057Z,-0.10
2019-01-04T02:48:37.851Z,0.00
2019-01-04T02:51:06.710Z,0.00
2019-01-04T02:53:49.855Z,0.10
2019-01-04T02:56:18.666Z,0.10
2019-01-04T02:58:47.454Z,0.10
2019-01-04T03:01:16.249Z,0.20
2019-01-04T03:03:45.066Z,0.20
2019-01-04T03:06:13.938Z,0.30
2019-01-04T03:08:42.828Z,0.30
2019-01-04T03:11:11.630Z,0.30
2019-01-04T03:13:40.432Z,0.40
2019-01-04T03:16:09.219Z,0.30
2019-01-04T03:18:38.020Z,0.40
2019-01-04T03:21:06.802Z,0.40
2019-01-04T03:23:35.714Z,0.40
2019-01-04T03:26:04.575Z,0.40
2019-01-04T03:28:33.382Z,0.50
2019-01-04T03:31:02.166Z,0.50
2019-01-04T03:33:30.971Z,0.50
2019-01-04T03:35:59.763Z,0.50
2019-01-04T03:38:28.575Z,0.60
2019-01-04T03:40:57.447Z,0.60
2019-01-04T03:43:26.285Z,0.60
2019-01-04T03:45:55.059Z,0.70
2019-01-04T03:48:23.855Z,0.70
2019-01-04T03:50:52.807Z,0.80
2019-01-04T03:53:21.584Z,0.80
2019-01-04T03:55:50.480Z,0.90
2019-01-04T03:58:19.265Z,0.90
2019-01-04T04:00:48.151Z,0.90
2019-01-04T04:03:16.955Z,1.00
2019-01-04T04:05:45.826Z,1.00
2019-01-04T04:08:14.758Z,1.00
2019-01-04T04:10:43.590Z,1.10
2019-01-04T04:13:12.400Z,1.10
2019-01-04T04:15:41.211Z,1.10
2019-01-04T04:18:09.996Z,1.20
2019-01-04T04:20:38.783Z,1.20
2019-01-04T04:23:07.595Z,1.20
2019-01-04T04:25:36.387Z,1.20
2019-01-04T04:28:05.250Z,1.20
2019-01-04T04:30:34.059Z,1.20
2019-01-04T04:33:02.862Z,1.20
2019-01-04T04:35:31.674Z,1.20
2019-01-04T04:38:00.476Z,1.30
2019-01-04T04:40:30.713Z,1.30
2019-01-04T04:42:59.750Z,1.30
2019-01-04T04:45:28.535Z,1.30
2019-01-04T04:47:57.341Z,1.30
2019-01-04T04:50:26.131Z,1.40
2019-01-04T04:52:55.007Z,1.40
2019-01-04T04:55:23.864Z,1.40
2019-01-04T04:57:52.659Z,1.40
2019-01-04T05:00:21.438Z,1.50
2019-01-04T05:02:50.259Z,1.50
2019-01-04T05:05:19.056Z,1.60
2019-01-04T05:07:47.853Z,1.50
2019-01-04T05:10:16.719Z,1.60
2019-01-04T05:12:45.531Z,1.60
2019-01-04T05:15:14.304Z,1.60
2019-01-04T05:17:43.106Z,1.60
2019-01-04T05:20:11.891Z,1.60
2019-01-04T05:22:40.705Z,1.70
2019-01-04T05:25:09.515Z,1.70
2019-01-04T05:27:38.338Z,1.70
2019-01-04T05:30:07.279Z,1.70
2019-01-04T05:32:36.070Z,1.70
2019-01-04T05:35:05.050Z,1.70
2019-01-04T05:37:33.854Z,1.70
2019-01-04T05:40:02.659Z,1.70
2019-01-04T05:42:31.456Z,1.80
2019-01-04T05:45:00.266Z,1.80
2019-01-04T05:47:29.053Z,1.80
2019-01-04T05:49:57.871Z,1.80
2019-01-04T05:52:26.658Z,1.80
2019-01-04T05:54:55.547Z,1.80
2019-01-04T05:57:24.343Z,1.80
2019-01-04T05:59:53.219Z,1.80
2019-01-04T06:02:22.008Z,1.80
2019-01-04T06:04:50.807Z,1.90
2019-01-04T06:07:19.596Z,1.90
2019-01-04T06:09:48.395Z,1.90
2019-01-04T06:12:17.197Z,1.90
2019-01-04T06:14:45.989Z,1.90
2019-01-04T06:17:14.866Z,1.90
2019-01-04T06:19:43.679Z,1.90
2019-01-04T06:22:12.475Z,1.90
2019-01-04T06:24:41.302Z,1.90
2019-01-04T06:27:10.102Z,1.90
2019-01-04T06:29:38.909Z,1.90
2019-01-04T06:32:07.699Z,1.90
2019-01-04T06:34:36.510Z,1.90
2019-01-04T06:37:05.323Z,1.90
2019-01-04T06:39:34.134Z,1.90
2019-01-04T06:42:02.930Z,1.90
2019-01-04T06:44:31.741Z,1.90
2019-01-04T06:47:31.879Z,1.90
2019-01-04T06:50:00.686Z,1.90
2019-01-04T06:52:29.486Z,1.90
2019-01-04T06:55:33.754Z,1.90
2019-01-04T06:58:02.589Z,1.90
2019-01-04T07:00:31.452Z,1.80
2019-01-04T07:03:00.248Z,1.90
2019-01-04T07:05:29.062Z,1.80
2019-01-04T07:07:57.850Z,1.90
2019-01-04T07:10:26.655Z,1.80
2019-01-04T07:12:55.515Z,1.90
2019-01-04T07:15:24.527Z,1.80
2019-01-04T07:17:53.374Z,1.80
2019-01-04T07:20:22.258Z,1.80
2019-01-04T07:22:51.058Z,1.80
2019-01-04T07:25:19.910Z,1.80
2019-01-04T07:27:48.726Z,1.90
2019-01-04T07:30:17.528Z,1.90
2019-01-04T07:32:46.336Z,1.90
2019-01-04T07:35:15.130Z,1.90
2019-01-04T07:37:44.062Z,2.00
2019-01-04T07:40:13.039Z,2.00
2019-01-04T07:42:41.848Z,2.10
2019-01-04T07:45:15.133Z,2.10
2019-01-04T07:47:44.122Z,2.10
2019-01-04T07:50:13.017Z,2.10
2019-01-04T07:52:41.859Z,2.10
2019-01-04T07:55:12.075Z,2.10
2019-01-04T07:57:42.462Z,2.10
2019-01-04T08:00:15.498Z,2.20
2019-01-04T08:02:48.350Z,2.20
2019-01-04T08:05:23.665Z,2.30
2019-01-04T08:07:54.372Z,2.20
2019-01-04T08:10:24.242Z,2.30
2019-01-04T08:12:54.650Z,2.30
2019-01-04T08:15:24.607Z,2.30
2019-01-04T08:17:54.060Z,2.40
2019-01-04T08:20:23.144Z,2.40
2019-01-04T08:22:52.379Z,2.40
2019-01-04T08:25:21.174Z,2.40
2019-01-04T08:27:49.974Z,2.40
2019-01-04T08:30:19.896Z,2.50
2019-01-04T08:32:48.703Z,2.60
2019-01-04T08:35:17.486Z,2.60
2019-01-04T08:37:46.299Z,2.60
2019-01-04T08:40:15.371Z,2.60
2019-01-04T08:42:44.331Z,2.70
2019-01-04T08:45:14.392Z,2.70
2019-01-04T08:47:43.274Z,2.70
2019-01-04T08:50:13.157Z,2.80
2019-01-04T08:52:42.045Z,2.80
2019-01-04T08:55:13.631Z,2.80
2019-01-04T08:57:42.475Z,2.90
2019-01-04T09:00:13.142Z,2.90
2019-01-04T09:02:42.021Z,2.90
2019-01-04T09:05:10.928Z,3.00
2019-01-04T09:07:39.801Z,3.00
2019-01-04T09:10:09.557Z,3.00
2019-01-04T09:12:38.503Z,3.10
2019-01-04T09:15:09.895Z,3.10
2019-01-04T09:17:38.736Z,3.10
2019-01-04T09:20:10.034Z,3.10
2019-01-04T09:22:39.209Z,3.10
2019-01-04T09:25:09.971Z,3.10
2019-01-04T09:27:38.918Z,3.10
2019-01-04T09:30:13.219Z,3.20
2019-01-04T09:32:42.088Z,3.10
2019-01-04T09:35:13.030Z,3.20
2019-01-04T09:37:41.798Z,3.20
2019-01-04T09:40:11.931Z,3.20
2019-01-04T09:42:43.589Z,3.20
2019-01-04T09:45:21.853Z,3.20
2019-01-04T09:47:50.943Z,3.20
2019-01-04T09:50:20.322Z,3.20
2019-01-04T09:52:49.584Z,3.20
2019-01-04T09:55:25.312Z,3.20
2019-01-04T09:57:54.993Z,3.30
2019-01-04T10:00:24.412Z,3.30
2019-01-04T10:02:56.118Z,3.30
2019-01-04T10:05:41.830Z,3.30
2019-01-04T10:08:14.171Z,3.30
2019-01-04T10:10:44.112Z,3.30
2019-01-04T10:13:13.727Z,3.30
2019-01-04T10:15:43.459Z,3.30
2019-01-04T10:18:12.971Z,3.30
2019-01-04T10:20:42.157Z,3.30
2019-01-04T10:23:11.507Z,3.30
2019-01-04T10:25:40.738Z,3.30
2019-01-04T10:28:10.022Z,3.30
2019-01-04T10:30:39.239Z,3.30
2019-01-04T10:33:08.442Z,3.30
2019-01-04T10:35:37.506Z,3.30
2019-01-04T10:38:06.684Z,3.30
2019-01-04T10:40:35.784Z,3.30
2019-01-04T10:43:04.954Z,3.40
2019-01-04T10:45:34.423Z,3.30
2019-01-04T10:48:03.580Z,3.40
2019-01-04T10:50:32.796Z,3.40
2019-01-04T10:53:02.007Z,3.40
2019-01-04T10:55:31.155Z,3.40
2019-01-04T10:58:00.474Z,3.40
2019-01-04T11:00:29.842Z,3.50
2019-01-04T11:02:58.981Z,3.50
2019-01-04T11:05:28.222Z,3.50
2019-01-04T11:07:57.319Z,3.50
2019-01-04T11:10:26.472Z,3.50
2019-01-04T11:12:55.604Z,3.50
2019-01-04T11:15:24.796Z,3.50
2019-01-04T11:17:54.096Z,3.50
2019-01-04T11:20:48.602Z,3.50
2019-01-04T11:24:26.490Z,3.50
2019-01-04T11:27:08.228Z,3.50
2019-01-04T11:30:06.745Z,3.50
2019-01-04T11:33:00.727Z,3.50
2019-01-04T11:36:12.624Z,3.50
2019-01-04T11:39:19.359Z,3.50
2019-01-04T11:42:20.846Z,3.50
2019-01-04T11:45:22.694Z,3.50
2019-01-04T11:48:08.157Z,3.50
2019-01-04T11:50:59.517Z,3.50
2019-01-04T11:53:28.682Z,3.50
2019-01-04T11:55:57.566Z,3.50
2019-01-04T11:58:29.648Z,3.50
2019-01-04T12:00:58.637Z,3.50
2019-01-04T12:03:27.470Z,3.50
2019-01-04T12:05:56.266Z,3.50
2019-01-04T12:08:25.139Z,3.50
2019-01-04T12:10:53.943Z,3.50
2019-01-04T12:13:22.777Z,3.50
2019-01-04T12:15:51.640Z,3.50
2019-01-04T12:18:20.450Z,3.50
2019-01-04T12:20:49.257Z,3.50
2019-01-04T12:23:18.175Z,3.50
2019-01-04T12:25:46.978Z,3.50
2019-01-04T12:28:15.833Z,3.60
2019-01-04T12:30:44.648Z,3.60
2019-01-04T12:33:13.442Z,3.60
2019-01-04T12:35:42.262Z,3.60
2019-01-04T12:38:11.129Z,3.60
2019-01-04T12:40:39.958Z,3.60
2019-01-04T12:43:08.780Z,3.60
2019-01-04T12:45:37.584Z,3.60
2019-01-04T12:48:06.394Z,3.70
2019-01-04T12:50:35.194Z,3.70
2019-01-04T12:53:04.083Z,3.70
2019-01-04T12:55:34.054Z,3.70
2019-01-04T12:58:03.051Z,3.60
2019-01-04T13:00:31.892Z,3.70
2019-01-04T13:03:00.768Z,3.70
2019-01-04T13:05:30.794Z,3.70
2019-01-04T13:07:59.706Z,3.70
2019-01-04T13:10:28.590Z,3.70
2019-01-04T13:12:58.894Z,3.80
2019-01-04T13:15:28.959Z,3.80
2019-01-04T13:17:58.870Z,3.80
2019-01-04T13:20:27.828Z,3.80
2019-01-04T13:22:56.746Z,3.80
2019-01-04T13:25:25.631Z,3.70
2019-01-04T13:27:54.495Z,3.70
2019-01-04T13:30:23.487Z,3.80
2019-01-04T13:32:52.362Z,3.80
2019-01-04T13:35:21.314Z,3.80
2019-01-04T13:37:50.137Z,3.80
2019-01-04T13:40:19.135Z,3.80
2019-01-04T13:42:48.037Z,3.70
2019-01-04T13:45:16.944Z,3.80
2019-01-04T13:47:45.818Z,3.80
2019-01-04T13:50:14.723Z,3.80
2019-01-04T13:52:44.733Z,3.80
2019-01-04T13:55:13.722Z,3.80
2019-01-04T13:57:43.275Z,3.80
2019-01-04T14:00:13.345Z,3.80
2019-01-04T14:02:42.224Z,3.80
2019-01-04T14:05:11.114Z,3.90
2019-01-04T14:07:41.028Z,3.90
2019-01-04T14:10:12.058Z,3.90
2019-01-04T14:12:40.987Z,3.90
2019-01-04T14:15:09.993Z,3.90
2019-01-04T14:17:38.842Z,4.00
2019-01-04T14:20:08.382Z,3.90
2019-01-04T14:22:37.286Z,4.00
2019-01-04T14:25:08.119Z,4.00
2019-01-04T14:27:37.081Z,4.00
2019-01-04T14:30:07.636Z,4.00
2019-01-04T14:32:36.595Z,4.00
2019-01-04T14:35:05.871Z,4.00
2019-01-04T14:37:34.886Z,4.00
2019-01-04T14:40:04.524Z,4.00
2019-01-04T14:42:33.499Z,4.00
2019-01-04T14:45:05.335Z,4.00
2019-01-04T14:47:34.218Z,4.00
2019-01-04T14:50:03.427Z,4.00
2019-01-04T14:52:32.319Z,4.10
2019-01-04T14:55:01.203Z,4.00
2019-01-04T14:57:30.088Z,4.10
2019-01-04T14:59:59.006Z,4.10
2019-01-04T15:02:27.867Z,4.10
2019-01-04T15:04:56.790Z,4.10
2019-01-04T15:07:25.637Z,4.10
2019-01-04T15:09:54.574Z,4.10
2019-01-04T15:12:23.424Z,4.10
2019-01-04T15:14:52.319Z,4.10
2019-01-04T15:17:22.227Z,4.10
2019-01-04T15:19:51.293Z,4.10
2019-01-04T15:22:29.328Z,4.10
2019-01-04T15:25:06.187Z,4.20
2019-01-04T15:27:35.401Z,4.10
2019-01-04T15:30:05.174Z,4.20
2019-01-04T15:32:34.108Z,4.20
2019-01-04T15:35:03.145Z,4.20
2019-01-04T15:37:32.338Z,4.10
2019-01-04T15:40:01.334Z,4.20
2019-01-04T15:42:30.301Z,4.20
2019-01-04T15:44:59.174Z,4.20
2019-01-04T15:47:28.047Z,4.20
2019-01-04T15:49:57.046Z,4.20
2019-01-04T15:52:26.283Z,4.20
2019-01-04T15:54:55.118Z,4.20
2019-01-04T15:57:24.111Z,4.20
2019-01-04T15:59:53.018Z,4.20
2019-01-04T16:02:23.031Z,4.20
2019-01-04T16:04:51.999Z,4.20
2019-01-04T16:07:21.005Z,4.20
2019-01-04T16:09:49.979Z,4.20
2019-01-04T16:12:18.994Z,4.20
2019-01-04T16:14:47.970Z,4.20
2019-01-04T16:17:16.990Z,4.20
2019-01-04T16:19:46.999Z,4.20
2019-01-04T16:22:17.033Z,4.20
2019-01-04T16:24:46.067Z,4.20
2019-01-04T16:27:15.415Z,4.20
2019-01-04T16:29:44.369Z,4.20
2019-01-04T16:32:13.337Z,4.30
2019-01-04T16:34:42.255Z,4.30
2019-01-04T16:37:11.207Z,4.30
2019-01-04T16:39:40.916Z,4.30
2019-01-04T16:42:10.974Z,4.30
2019-01-04T16:44:39.886Z,4.30
2019-01-04T16:47:09.929Z,4.30
2019-01-04T16:49:39.001Z,4.30
2019-01-04T16:52:08.180Z,4.30
2019-01-04T16:54:37.368Z,4.30
2019-01-04T16:57:06.634Z,4.30
2019-01-04T16:59:35.778Z,4.30
2019-01-04T17:02:05.371Z,4.30
2019-01-04T17:04:38.509Z,4.30
2019-01-04T17:07:07.567Z,4.30
2019-01-04T17:09:36.676Z,4.30
2019-01-04T17:12:05.687Z,4.30
2019-01-04T17:14:34.530Z,4.30
2019-01-04T17:17:03.498Z,4.40
2019-01-04T17:19:32.610Z,4.30
2019-01-04T17:22:01.488Z,4.30
2019-01-04T17:24:30.386Z,4.40
2019-01-04T17:27:00.191Z,4.40
2019-01-04T17:29:30.222Z,4.40
2019-01-04T17:31:59.210Z,4.40
2019-01-04T17:34:29.338Z,4.40
2019-01-04T17:36:58.223Z,4.40
2019-01-04T17:39:27.176Z,4.50
2019-01-04T17:42:03.564Z,4.50
2019-01-04T17:44:32.481Z,4.50
2019-01-04T17:47:01.354Z,4.50
2019-01-04T17:49:31.386Z,4.50
2019-01-04T17:52:00.273Z,4.50
2019-01-04T17:54:29.158Z,4.50
2019-01-04T17:56:58.142Z,4.50
2019-01-04T17:59:29.213Z,4.50
2019-01-04T18:01:58.166Z,4.50
2019-01-04T18:04:27.147Z,4.50
2019-01-04T18:06:56.259Z,4.50
2019-01-04T18:09:25.271Z,4.60
2019-01-04T18:11:54.274Z,4.60
2019-01-04T18:14:23.135Z,4.60
2019-01-04T18:16:52.185Z,4.60
2019-01-04T18:19:21.194Z,4.60
2019-01-04T18:21:50.145Z,4.60
2019-01-04T18:24:19.045Z,4.70
2019-01-04T18:26:48.074Z,4.60
2019-01-04T18:29:17.033Z,4.60
2019-01-04T18:31:46.057Z,4.70
2019-01-04T18:34:15.015Z,4.70
2019-01-04T18:36:45.019Z,4.70
2019-01-04T18:39:15.978Z,4.70
2019-01-04T18:41:45.005Z,4.70
2019-01-04T18:44:13.956Z,4.80
2019-01-04T18:46:45.171Z,4.80
2019-01-04T18:49:14.082Z,4.80
2019-01-04T18:51:43.118Z,4.80
2019-01-04T18:54:12.103Z,4.80
2019-01-04T18:56:41.211Z,4.80
2019-01-04T18:59:10.206Z,4.80
2019-01-04T19:01:39.098Z,4.90
2019-01-04T19:04:09.167Z,4.90
2019-01-04T19:06:39.158Z,4.90
2019-01-04T19:09:08.894Z,4.90
2019-01-04T19:11:37.898Z,4.90
2019-01-04T19:14:07.859Z,4.90
2019-01-04T19:16:38.013Z,4.90
2019-01-04T19:19:07.008Z,4.90
2019-01-04T19:21:36.019Z,4.90
2019-01-04T19:24:05.050Z,4.90
2019-01-04T19:26:34.101Z,5.00
2019-01-04T19:29:03.130Z,4.90
2019-01-04T19:31:32.356Z,4.90
2019-01-04T19:34:01.454Z,5.00
2019-01-04T19:36:30.296Z,5.00
2019-01-04T19:38:59.485Z,5.00
2019-01-04T19:41:28.731Z,5.00
2019-01-04T19:43:57.762Z,5.00
2019-01-04T19:46:26.735Z,5.00
2019-01-04T19:48:55.841Z,5.00
2019-01-04T19:51:24.874Z,5.00
2019-01-04T19:53:53.896Z,5.00
2019-01-04T19:56:22.802Z,5.00
2019-01-04T19:58:52.435Z,5.00
2019-01-04T20:01:21.554Z,5.00
2019-01-04T20:03:50.502Z,5.00
2019-01-04T20:07:21.620Z,5.10
2019-01-04T20:10:44.839Z,5.00
2019-01-04T20:14:07.792Z,5.10
2019-01-04T20:16:59.152Z,5.10
2019-01-04T20:19:47.546Z,5.10
2019-01-04T20:22:47.965Z,5.10
2019-01-04T20:25:30.856Z,5.10
2019-01-04T20:28:18.845Z,5.10
2019-01-04T20:31:24.806Z,5.10
2019-01-04T20:34:09.647Z,5.20
2019-01-04T20:37:10.387Z,5.20
2019-01-04T20:40:01.263Z,5.20
2019-01-04T20:42:53.491Z,5.20
2019-01-04T20:45:34.189Z,5.20
2019-01-04T20:48:15.622Z,5.30
2019-01-04T20:51:03.493Z,5.30
2019-01-04T20:53:51.366Z,5.30
2019-01-04T20:56:43.956Z,5.20
2019-01-04T20:59:30.836Z,5.30
2019-01-04T21:02:28.138Z,5.30
2019-01-04T21:05:11.804Z,5.30
2019-01-04T21:08:00.142Z,5.30
2019-01-04T21:10:58.094Z,5.30
2019-01-04T21:13:56.926Z,5.30
2019-01-04T21:16:57.090Z,5.30
2019-01-04T21:19:44.750Z,5.30
2019-01-04T21:22:51.310Z,5.40
2019-01-04T21:25:42.296Z,5.40
2019-01-04T21:28:30.973Z,5.40
2019-01-04T21:31:17.799Z,5.40
2019-01-04T21:34:08.795Z,5.40
2019-01-04T21:37:08.725Z,5.40
2019-01-04T21:39:55.668Z,5.50
2019-01-04T21:42:53.030Z,5.40
2019-01-04T21:45:59.111Z,5.50
2019-01-04T21:48:47.063Z,5.50
2019-01-04T21:51:47.683Z,5.50
2019-01-04T21:54:49.652Z,5.50
2019-01-04T21:57:37.482Z,5.50
2019-01-04T22:00:24.374Z,5.60
2019-01-04T22:03:31.535Z,5.60
2019-01-04T22:06:25.814Z,5.60
2019-01-04T22:09:12.569Z,5.60
2019-01-04T22:12:01.002Z,5.60
2019-01-04T22:14:58.998Z,5.60
2019-01-04T22:17:45.943Z,5.60
2019-01-04T22:20:38.330Z,5.70
2019-01-04T22:23:41.924Z,5.70
2019-01-04T22:26:29.667Z,5.70
2019-01-04T22:29:16.610Z,5.70
2019-01-04T22:31:55.192Z,5.70
2019-01-04T22:34:43.124Z,5.70
2019-01-04T22:37:30.324Z,5.80
2019-01-04T22:40:33.625Z,5.80
2019-01-04T22:43:20.998Z,5.80
2019-01-04T22:46:12.962Z,5.80
2019-01-04T22:48:58.353Z,5.80
2019-01-04T22:51:45.044Z,5.80
2019-01-04T22:54:38.223Z,5.80
2019-01-04T22:57:32.930Z,5.80
2019-01-04T23:00:20.629Z,5.90
2019-01-04T23:03:07.979Z,5.90
2019-01-04T23:05:54.853Z,5.90
2019-01-04T23:08:56.015Z,5.90
2019-01-04T23:11:42.855Z,5.90
2019-01-04T23:14:26.908Z,5.90
2019-01-04T23:17:20.319Z,5.90
2019-01-04T23:20:08.615Z,5.90
2019-01-04T23:23:00.943Z,5.90
2019-01-04T23:25:47.852Z,5.90
2019-01-04T23:28:34.851Z,5.90
2019-01-04T23:31:21.510Z,5.90
2019-01-04T23:34:07.247Z,5.90
2019-01-04T23:37:01.251Z,5.90
2019-01-04T23:39:47.844Z,5.90
2019-01-04T23:42:34.463Z,5.90
2019-01-04T23:45:30.710Z,5.90
2019-01-04T23:48:17.142Z,5.90
2019-01-04T23:51:20.586Z,5.90
2019-01-04T23:53:57.225Z,5.90
2019-01-04T23:56:57.315Z,5.90
2019-01-04T23:59:51.112Z,5.90
